Time;durP1;ratioP1;P1;durP2;ratioP2;P2;SDS_P1;SDS_P2;PMS_P1;PMS_P2;Temp;Humidity;BMP_temperature;BMP_pressure;BME280_temperature;BME280_humidity;BME280_pressure;Samples;Min_cycle;Max_cycle;Signal;HPM_P1;HPM_P2
2023/08/04 00:00:37;;;;;;;2.15;0.90;;;15.30;99.90;;;;;;5109039;28;20047;-55
2023/08/04 00:03:02;;;;;;;2.20;1.15;;;15.30;99.90;;;;;;5090426;28;20115;-51
2023/08/04 00:05:28;;;;;;;1.75;1.00;;;15.30;99.90;;;;;;5087452;28;20122;-50
2023/08/04 00:07:54;;;;;;;1.92;0.90;;;15.30;99.90;;;;;;5106087;28;20043;-53
2023/08/04 00:10:19;;;;;;;0.80;0.80;;;15.30;99.90;;;;;;5108738;28;20028;-54
2023/08/04 00:12:46;;;;;;;1.35;0.90;;;15.30;99.90;;;;;;5088979;28;20038;-52
2023/08/04 00:15:11;;;;;;;0.77;0.77;;;15.30;99.90;;;;;;5106904;28;20058;-55
2023/08/04 00:17:38;;;;;;;1.00;0.98;;;15.30;99.90;;;;;;5088991;28;20636;-55
2023/08/04 00:20:08;;;;;;;1.20;1.10;;;15.30;99.90;;;;;;5087228;28;20159;-55
2023/08/04 00:22:34;;;;;;;0.85;0.82;;;15.40;99.90;;;;;;5108510;28;20024;-54
2023/08/04 00:25:00;;;;;;;3.28;0.90;;;15.50;99.90;;;;;;5086966;28;20404;-52
2023/08/04 00:27:25;;;;;;;1.23;0.88;;;15.60;99.90;;;;;;5107861;28;20085;-53
2023/08/04 00:29:51;;;;;;;0.80;0.80;;;15.60;99.90;;;;;;5090593;28;20096;-51
2023/08/04 00:32:16;;;;;;;0.90;0.80;;;15.70;99.90;;;;;;5108699;28;20078;-55
2023/08/04 00:34:42;;;;;;;1.10;0.90;;;15.80;99.90;;;;;;5080930;28;20036;-53
2023/08/04 00:37:07;;;;;;;2.67;1.13;;;15.90;99.90;;;;;;5109715;28;20023;-54
2023/08/04 00:39:33;;;;;;;1.17;1.00;;;15.90;99.90;;;;;;5090990;28;20496;-50
2023/08/04 00:41:58;;;;;;;0.98;0.90;;;16.00;99.90;;;;;;5111587;28;20076;-51
2023/08/04 00:44:24;;;;;;;0.88;0.88;;;16.10;99.90;;;;;;5090548;28;20407;-53
2023/08/04 00:46:49;;;;;;;0.73;0.70;;;16.10;99.90;;;;;;5111516;28;20035;-55
2023/08/04 00:49:16;;;;;;;1.83;1.00;;;16.20;99.90;;;;;;5090664;28;20396;-54
2023/08/04 00:51:41;;;;;;;1.35;0.98;;;16.20;99.90;;;;;;5111535;28;20032;-54
2023/08/04 00:54:07;;;;;;;1.00;1.00;;;16.20;99.90;;;;;;5101545;28;20058;-53
2023/08/04 00:56:34;;;;;;;1.35;1.17;;;16.30;99.90;;;;;;5092314;28;20032;-56
2023/08/04 00:59:00;;;;;;;1.63;0.95;;;16.30;99.90;;;;;;5109233;28;20023;-53
2023/08/04 01:01:25;;;;;;;3.92;1.00;;;16.30;99.90;;;;;;5092130;28;20564;-51
2023/08/04 01:03:52;;;;;;;0.68;0.68;;;16.30;99.90;;;;;;5107937;28;20511;-55
2023/08/04 01:06:42;;;;;;;0.90;0.80;;;16.30;99.90;;;;;;5091893;28;20028;-51
2023/08/04 01:09:29;;;;;;;2.58;1.35;;;16.40;99.90;;;;;;5091785;28;20411;-54
2023/08/04 01:12:05;;;;;;;1.52;1.27;;;16.40;99.90;;;;;;5071279;28;20036;-51
2023/08/04 01:14:31;;;;;;;1.13;1.02;;;16.50;99.90;;;;;;5083740;28;20035;-54
2023/08/04 01:17:00;;;;;;;1.70;1.10;;;16.50;99.90;;;;;;5109813;28;20471;-51
2023/08/04 01:19:26;;;;;;;1.33;1.00;;;16.50;99.90;;;;;;5089673;28;20480;-53
2023/08/04 01:21:52;;;;;;;1.00;1.00;;;16.50;99.90;;;;;;5110816;28;20031;-53
2023/08/04 01:24:17;;;;;;;1.33;0.80;;;16.50;99.90;;;;;;5089988;28;20413;-51
2023/08/04 01:26:45;;;;;;;1.42;1.33;;;16.50;99.90;;;;;;5110513;28;20043;-55
2023/08/04 01:29:13;;;;;;;1.00;1.00;;;16.60;99.90;;;;;;5089794;28;20028;-63
2023/08/04 01:31:40;;;;;;;1.75;1.23;;;16.60;99.90;;;;;;5111013;28;20066;-56
2023/08/04 01:34:06;;;;;;;2.58;1.02;;;16.60;99.90;;;;;;5095225;28;20035;-53
2023/08/04 01:36:31;;;;;;;5.20;1.15;;;16.60;99.90;;;;;;5091592;28;20024;-51
2023/08/04 01:38:57;;;;;;;1.80;1.30;;;16.70;99.90;;;;;;5108635;28;20030;-53
2023/08/04 01:41:23;;;;;;;3.17;1.02;;;16.70;99.90;;;;;;5091217;28;20127;-51
2023/08/04 01:43:48;;;;;;;1.45;1.30;;;16.70;99.90;;;;;;5108705;28;20114;-52
2023/08/04 01:46:14;;;;;;;1.90;1.13;;;16.70;99.90;;;;;;5091425;28;20036;-50
2023/08/04 01:48:39;;;;;;;1.80;1.30;;;16.70;99.90;;;;;;5107817;28;20244;-52
2023/08/04 01:51:05;;;;;;;1.35;1.20;;;16.80;99.90;;;;;;5111141;28;20016;-55
2023/08/04 01:53:30;;;;;;;2.88;1.15;;;16.80;99.90;;;;;;5095242;28;20080;-54
2023/08/04 01:55:56;;;;;;;1.33;1.15;;;16.80;99.90;;;;;;5111038;28;20102;-54
2023/08/04 01:58:21;;;;;;;1.88;1.35;;;16.80;99.90;;;;;;5093537;28;20031;-54
2023/08/04 02:00:47;;;;;;;1.77;1.60;;;16.80;99.90;;;;;;5107164;28;20024;-54
2023/08/04 02:03:12;;;;;;;1.35;1.25;;;16.80;99.90;;;;;;5092201;28;20110;-53
2023/08/04 02:05:45;;;;;;;1.52;1.40;;;16.80;99.90;;;;;;5110832;28;20046;-53
2023/08/04 02:08:10;;;;;;;4.40;1.55;;;16.80;99.90;;;;;;5074466;28;20283;-52
2023/08/04 02:10:36;;;;;;;2.33;1.45;;;16.90;99.90;;;;;;5109720;28;20225;-55
2023/08/04 02:13:01;;;;;;;1.40;1.30;;;16.90;99.90;;;;;;5090557;28;20057;-50
2023/08/04 02:15:27;;;;;;;2.83;1.60;;;16.90;99.90;;;;;;5110551;28;20020;-55
2023/08/04 02:17:53;;;;;;;1.90;1.50;;;16.90;99.90;;;;;;5089283;28;20399;-53
2023/08/04 02:20:18;;;;;;;1.40;1.25;;;16.90;99.90;;;;;;5110570;28;20020;-55
2023/08/04 02:22:44;;;;;;;2.90;1.40;;;16.90;99.90;;;;;;5090388;28;20049;-55
2023/08/04 02:25:09;;;;;;;2.25;1.55;;;16.90;99.90;;;;;;5107977;28;20040;-52
2023/08/04 02:27:35;;;;;;;2.40;1.40;;;16.90;99.90;;;;;;5090526;28;20044;-54
2023/08/04 02:30:00;;;;;;;1.77;1.58;;;16.90;99.90;;;;;;5093876;28;20471;-52
2023/08/04 02:32:26;;;;;;;4.00;1.65;;;16.90;99.90;;;;;;5109626;28;20437;-55
2023/08/04 02:34:51;;;;;;;3.50;1.70;;;16.90;99.90;;;;;;5085333;28;20552;-54
2023/08/04 02:37:17;;;;;;;1.50;1.40;;;16.90;99.90;;;;;;5109351;28;20231;-51
2023/08/04 02:39:42;;;;;;;2.63;1.52;;;16.90;99.90;;;;;;5088440;28;20036;-53
2023/08/04 02:42:08;;;;;;;2.42;1.55;;;16.90;99.90;;;;;;5109261;28;20032;-56
2023/08/04 02:44:33;;;;;;;2.35;1.55;;;16.90;99.90;;;;;;5089926;28;20039;-52
2023/08/04 02:46:59;;;;;;;2.67;1.40;;;16.90;99.90;;;;;;5109781;28;20232;-52
2023/08/04 02:49:24;;;;;;;1.88;1.65;;;16.90;99.90;;;;;;5088271;28;20038;-55
2023/08/04 02:51:50;;;;;;;2.88;1.80;;;16.90;99.90;;;;;;5109115;28;20395;-54
2023/08/04 02:54:15;;;;;;;2.30;1.75;;;16.90;99.90;;;;;;5088246;28;20034;-53
2023/08/04 02:56:40;;;;;;;3.53;1.80;;;16.90;99.90;;;;;;5108778;28;20032;-53
2023/08/04 02:59:06;;;;;;;1.83;1.73;;;16.90;99.90;;;;;;5098765;28;20116;-55
2023/08/04 03:01:31;;;;;;;3.70;2.20;;;16.90;99.90;;;;;;5087720;28;20038;-52
2023/08/04 03:03:57;;;;;;;4.18;1.75;;;16.90;99.90;;;;;;5107026;28;20031;-54
2023/08/04 03:06:22;;;;;;;3.17;1.80;;;16.90;99.90;;;;;;5089502;28;20034;-51
2023/08/04 03:08:48;;;;;;;4.07;2.20;;;16.90;99.90;;;;;;5106811;28;20515;-52
2023/08/04 03:11:13;;;;;;;2.20;1.90;;;17.00;99.90;;;;;;5089682;28;20038;-55
2023/08/04 03:13:39;;;;;;;3.58;1.90;;;16.90;99.90;;;;;;5105389;28;20060;-54
2023/08/04 03:16:05;;;;;;;2.20;2.00;;;16.90;99.90;;;;;;5109360;28;20047;-54
2023/08/04 03:18:31;;;;;;;3.10;2.28;;;17.00;99.90;;;;;;5093393;28;20024;-53
2023/08/04 03:20:57;;;;;;;2.92;2.03;;;17.00;99.90;;;;;;5108019;28;20025;-51
2023/08/04 03:23:22;;;;;;;3.33;2.33;;;17.00;99.90;;;;;;5092080;28;20300;-54
2023/08/04 03:25:48;;;;;;;2.72;1.88;;;17.00;99.90;;;;;;5109474;28;20268;-50
2023/08/04 03:28:14;;;;;;;2.50;2.00;;;17.00;99.90;;;;;;5091094;28;20081;-54
2023/08/04 03:30:40;;;;;;;4.57;1.85;;;17.00;99.90;;;;;;5098257;28;20062;-50
2023/08/04 03:33:05;;;;;;;4.13;2.20;;;17.00;99.90;;;;;;5106557;28;20110;-54
2023/08/04 03:35:31;;;;;;;4.78;2.15;;;17.00;99.90;;;;;;5103898;28;20106;-54
2023/08/04 03:37:56;;;;;;;5.00;2.30;;;17.00;99.90;;;;;;5088798;28;20020;-53
2023/08/04 03:40:22;;;;;;;3.38;2.03;;;17.00;99.90;;;;;;5107602;28;20455;-53
2023/08/04 03:42:48;;;;;;;3.47;2.10;;;17.00;99.90;;;;;;5087985;28;20078;-54
2023/08/04 03:45:13;;;;;;;3.85;2.22;;;17.00;99.90;;;;;;5088914;28;20072;-53
2023/08/04 03:47:39;;;;;;;5.60;2.22;;;17.00;99.90;;;;;;5108276;28;20160;-53
2023/08/04 03:50:06;;;;;;;2.17;1.70;;;17.00;99.90;;;;;;5087304;28;20024;-54
2023/08/04 03:52:32;;;;;;;3.45;2.42;;;17.00;99.90;;;;;;5098389;28;20555;-52
2023/08/04 03:54:58;;;;;;;3.15;2.42;;;17.00;99.90;;;;;;5088293;28;20035;-53
2023/08/04 03:57:24;;;;;;;3.60;2.00;;;17.00;99.90;;;;;;5108272;28;20376;-54
2023/08/04 03:59:53;;;;;;;2.95;2.60;;;17.00;99.90;;;;;;5087413;28;20512;-56
2023/08/04 04:02:19;;;;;;;3.47;2.25;;;17.00;99.90;;;;;;5108573;28;20064;-54
2023/08/04 04:04:44;;;;;;;3.08;2.10;;;17.10;99.90;;;;;;5085921;28;20032;-55
2023/08/04 04:07:09;;;;;;;3.92;2.38;;;17.10;99.90;;;;;;5101040;28;20044;-53
2023/08/04 04:09:35;;;;;;;4.18;3.05;;;17.10;99.90;;;;;;5101574;28;20032;-54
2023/08/04 04:12:01;;;;;;;4.32;2.22;;;17.10;99.90;;;;;;5095569;28;20039;-55
2023/08/04 04:14:26;;;;;;;4.88;2.22;;;17.10;99.90;;;;;;5110575;28;20081;-51
2023/08/04 04:16:51;;;;;;;7.57;2.60;;;17.10;99.90;;;;;;5092624;28;20024;-54
2023/08/04 04:19:17;;;;;;;5.03;2.72;;;17.10;99.90;;;;;;5097889;28;20547;-55
2023/08/04 04:21:42;;;;;;;5.03;2.28;;;17.20;99.90;;;;;;5111772;28;20081;-51
2023/08/04 04:24:08;;;;;;;5.35;2.35;;;17.20;99.90;;;;;;5091355;28;20050;-51
2023/08/04 04:26:33;;;;;;;3.33;2.25;;;17.20;99.90;;;;;;5112128;28;20392;-56
2023/08/04 04:28:59;;;;;;;4.30;2.58;;;17.20;99.90;;;;;;5100551;28;20035;-53
2023/08/04 04:31:24;;;;;;;3.50;2.75;;;17.20;99.90;;;;;;5092891;28;20119;-49
2023/08/04 04:33:50;;;;;;;6.00;2.97;;;17.30;99.90;;;;;;5106896;28;20036;-55
2023/08/04 04:36:15;;;;;;;7.40;2.65;;;17.30;99.90;;;;;;5092727;28;20031;-53
2023/08/04 04:38:41;;;;;;;6.78;2.78;;;17.30;99.90;;;;;;5109678;28;20044;-51
2023/08/04 04:41:07;;;;;;;4.50;2.25;;;17.30;99.90;;;;;;5112506;28;20020;-52
2023/08/04 04:43:33;;;;;;;7.28;2.85;;;17.40;99.90;;;;;;5096958;28;20092;-53
2023/08/04 04:45:58;;;;;;;5.90;2.83;;;17.40;99.90;;;;;;5111021;28;20020;-53
2023/08/04 04:48:24;;;;;;;6.32;2.83;;;17.40;99.90;;;;;;5095334;28;20507;-55
2023/08/04 04:50:50;;;;;;;5.40;2.55;;;17.40;99.90;;;;;;5112559;28;20035;-52
2023/08/04 04:53:16;;;;;;;4.15;2.60;;;17.40;99.90;;;;;;5094318;28;20028;-54
2023/08/04 04:55:42;;;;;;;3.72;2.28;;;17.50;99.90;;;;;;5112059;28;20050;-55
2023/08/04 04:58:07;;;;;;;4.28;2.60;;;17.50;99.90;;;;;;5093092;28;20449;-52
2023/08/04 05:00:34;;;;;;;8.35;2.70;;;17.50;99.90;;;;;;5112234;28;20451;-49
2023/08/04 05:03:00;;;;;;;5.93;3.40;;;17.60;99.90;;;;;;5091541;28;20331;-51
2023/08/04 05:05:26;;;;;;;4.57;2.75;;;17.60;99.90;;;;;;5111936;28;20034;-55
2023/08/04 05:07:51;;;;;;;4.05;2.70;;;17.70;99.90;;;;;;5090480;28;20455;-52
2023/08/04 05:10:17;;;;;;;3.35;2.75;;;17.80;99.90;;;;;;5112015;28;20050;-52
2023/08/04 05:12:42;;;;;;;6.70;2.63;;;17.80;99.90;;;;;;5091821;28;20020;-55
2023/08/04 05:15:08;;;;;;;6.00;2.58;;;17.90;99.90;;;;;;5089714;28;20488;-51
2023/08/04 05:17:35;;;;;;;5.55;2.40;;;18.10;99.90;;;;;;5111214;28;20042;-49
2023/08/04 05:20:01;;;;;;;6.05;2.50;;;18.10;99.90;;;;;;5089714;28;20526;-52
2023/08/04 05:22:27;;;;;;;5.25;2.40;;;18.20;99.90;;;;;;5110832;28;20498;-51
2023/08/04 05:24:52;;;;;;;3.80;2.08;;;18.40;99.90;;;;;;5089219;28;20055;-53
2023/08/04 05:27:18;;;;;;;4.15;2.10;;;18.50;99.90;;;;;;5110781;28;20031;-56
2023/08/04 05:29:43;;;;;;;3.97;2.47;;;18.80;99.90;;;;;;5092316;28;20502;-54
2023/08/04 05:32:09;;;;;;;6.53;2.42;;;19.00;99.90;;;;;;5111534;28;20027;-51
2023/08/04 05:34:34;;;;;;;3.95;2.20;;;19.20;99.90;;;;;;5097915;28;20031;-55
2023/08/04 05:37:00;;;;;;;4.03;2.13;;;19.30;99.90;;;;;;5091171;28;20511;-53
2023/08/04 05:39:25;;;;;;;4.43;2.40;;;19.40;99.90;;;;;;5095200;28;20024;-49
2023/08/04 05:41:51;;;;;;;4.72;2.25;;;19.70;99.90;;;;;;5110551;28;20032;-55
2023/08/04 05:44:16;;;;;;;5.20;2.00;;;20.10;99.90;;;;;;5089891;28;20042;-58
2023/08/04 05:46:42;;;;;;;2.70;2.08;;;20.40;98.80;;;;;;5110053;28;20032;-58
2023/08/04 05:49:07;;;;;;;5.15;2.40;;;20.50;96.70;;;;;;5100353;28;20043;-58
2023/08/04 05:51:33;;;;;;;4.75;2.03;;;20.70;96.60;;;;;;5091126;28;20444;-56
2023/08/04 05:53:58;;;;;;;4.07;1.70;;;21.00;96.50;;;;;;5108173;28;20039;-57
2023/08/04 05:56:23;;;;;;;3.33;1.85;;;21.10;95.70;;;;;;5090992;28;20024;-56
2023/08/04 05:58:49;;;;;;;5.22;2.20;;;21.00;95.20;;;;;;5108385;28;20035;-57
2023/08/04 06:01:14;;;;;;;3.75;2.50;;;20.80;92.30;;;;;;5091202;28;20024;-56
2023/08/04 06:03:40;;;;;;;3.92;2.38;;;20.60;93.70;;;;;;5092550;28;20040;-56
2023/08/04 06:06:05;;;;;;;6.45;2.30;;;20.40;94.10;;;;;;5110042;28;20122;-57
2023/08/04 06:08:31;;;;;;;5.03;2.35;;;20.20;93.90;;;;;;5089151;28;20123;-56
2023/08/04 06:10:58;;;;;;;3.72;2.30;;;20.00;94.10;;;;;;5110177;28;20028;-56
2023/08/04 06:13:23;;;;;;;4.35;1.88;;;19.80;93.30;;;;;;5088871;28;20051;-56
2023/08/04 06:15:49;;;;;;;5.57;2.45;;;19.70;94.00;;;;;;5110116;28;20063;-56
2023/08/04 06:18:14;;;;;;;4.43;2.58;;;19.70;94.20;;;;;;5089269;28;20024;-56
2023/08/04 06:20:40;;;;;;;6.28;2.35;;;19.60;93.40;;;;;;5109803;28;20098;-56
2023/08/04 06:23:05;;;;;;;4.25;1.95;;;19.60;93.20;;;;;;5088871;28;20154;-56
2023/08/04 06:25:31;;;;;;;5.55;2.10;;;19.70;92.70;;;;;;5109978;28;20039;-56
2023/08/04 06:27:56;;;;;;;3.47;2.08;;;19.70;92.60;;;;;;5088760;28;20085;-57
2023/08/04 06:30:22;;;;;;;3.80;1.80;;;19.80;92.70;;;;;;5101157;28;20115;-56
2023/08/04 06:32:47;;;;;;;7.18;2.63;;;19.80;92.40;;;;;;5099484;28;20039;-57
2023/08/04 06:35:13;;;;;;;3.97;2.08;;;19.80;92.20;;;;;;5103603;28;20107;-56
2023/08/04 06:37:39;;;;;;;3.55;2.17;;;19.90;92.30;;;;;;5088652;28;20020;-57
2023/08/04 06:40:06;;;;;;;5.47;2.03;;;20.10;92.30;;;;;;5089981;28;20044;-56
2023/08/04 06:42:31;;;;;;;5.25;1.92;;;20.40;92.50;;;;;;5101601;28;20032;-56
2023/08/04 06:44:57;;;;;;;4.82;1.90;;;20.60;92.00;;;;;;5090116;28;20024;-56
2023/08/04 06:47:22;;;;;;;3.20;1.80;;;20.80;91.60;;;;;;5102462;28;20036;-56
2023/08/04 06:49:49;;;;;;;2.15;1.70;;;20.80;91.00;;;;;;5088708;28;20020;-56
2023/08/04 06:52:14;;;;;;;2.72;1.70;;;20.70;91.40;;;;;;5102584;28;20069;-55
2023/08/04 06:54:40;;;;;;;4.43;2.25;;;20.60;90.40;;;;;;5089608;28;20411;-54
2023/08/04 06:57:06;;;;;;;6.25;2.30;;;20.60;91.20;;;;;;5104721;28;20043;-56
2023/08/04 06:59:31;;;;;;;4.95;2.30;;;20.60;90.50;;;;;;5089704;28;20103;-56
2023/08/04 07:01:57;;;;;;;7.43;2.00;;;20.70;90.50;;;;;;5104716;28;20074;-56
2023/08/04 07:04:23;;;;;;;4.05;2.00;;;20.80;90.30;;;;;;5089398;28;20039;-55
2023/08/04 07:06:48;;;;;;;3.75;2.22;;;20.90;90.00;;;;;;5107024;28;20063;-55
2023/08/04 07:09:14;;;;;;;5.57;1.90;;;20.90;90.30;;;;;;5089591;28;20095;-56
2023/08/04 07:11:39;;;;;;;4.72;1.88;;;20.80;89.50;;;;;;5108892;28;20031;-56
2023/08/04 07:14:05;;;;;;;4.53;2.28;;;21.40;86.40;;;;;;5088064;28;20483;-56
2023/08/04 07:16:30;;;;;;;5.68;1.60;;;23.00;84.20;;;;;;5109110;28;20024;-57
2023/08/04 07:18:56;;;;;;;10.20;2.50;;;24.40;78.50;;;;;;5088027;28;20028;-57
2023/08/04 07:21:21;;;;;;;6.25;2.03;;;25.10;73.40;;;;;;5107465;28;20054;-56
2023/08/04 07:23:47;;;;;;;3.13;1.60;;;25.00;67.70;;;;;;5088078;28;20102;-57
2023/08/04 07:26:12;;;;;;;2.88;1.58;;;24.70;72.30;;;;;;5108861;28;20031;-57
2023/08/04 07:28:38;;;;;;;3.95;1.85;;;24.70;71.90;;;;;;5087757;28;20097;-55
2023/08/04 07:31:07;;;;;;;4.60;2.15;;;24.80;71.50;;;;;;5108339;28;20130;-56
2023/08/04 07:33:33;;;;;;;3.53;1.60;;;24.70;70.20;;;;;;5084450;28;20386;-72
2023/08/04 07:36:00;;;;;;;4.47;1.60;;;24.70;71.40;;;;;;5109457;28;20095;-53
2023/08/04 07:38:29;;;;;;;2.92;1.70;;;24.80;70.80;;;;;;5090042;28;20066;-52
2023/08/04 07:40:55;;;;;;;4.20;1.90;;;24.60;70.20;;;;;;5109443;28;20023;-54
2023/08/04 07:43:21;;;;;;;2.97;1.80;;;24.50;70.20;;;;;;5087495;28;20111;-53
2023/08/04 07:45:46;;;;;;;4.72;1.77;;;24.50;68.70;;;;;;5108228;28;20020;-53
2023/08/04 07:48:12;;;;;;;6.18;1.75;;;24.60;69.90;;;;;;5086007;28;20059;-51
2023/08/04 07:50:43;;;;;;;4.13;1.67;;;24.70;69.40;;;;;;5108556;28;20031;-50
2023/08/04 07:53:08;;;;;;;3.60;1.60;;;24.70;67.60;;;;;;5087232;28;20415;-52
2023/08/04 07:55:35;;;;;;;6.97;1.75;;;24.60;68.40;;;;;;5108333;28;20023;-50
2023/08/04 07:58:01;;;;;;;3.85;1.80;;;24.40;68.80;;;;;;5087305;28;20062;-49
2023/08/04 08:00:26;;;;;;;4.20;1.60;;;24.40;68.80;;;;;;5095797;28;20024;-52
2023/08/04 08:02:52;;;;;;;2.55;1.60;;;24.50;68.20;;;;;;5108351;28;20046;-53
2023/08/04 08:05:17;;;;;;;4.47;1.52;;;24.70;66.20;;;;;;5087312;28;20028;-50
2023/08/04 08:07:43;;;;;;;5.18;1.48;;;24.60;66.40;;;;;;5107974;28;20043;-54
2023/08/04 08:10:08;;;;;;;3.25;1.42;;;24.50;66.00;;;;;;5087335;28;20039;-51
2023/08/04 08:12:34;;;;;;;2.67;1.75;;;24.40;65.50;;;;;;5108397;28;20399;-51
2023/08/04 08:14:59;;;;;;;3.90;1.30;;;24.20;65.90;;;;;;5087261;28;20028;-50
2023/08/04 08:17:25;;;;;;;4.38;1.45;;;24.40;65.60;;;;;;5088617;28;20040;-55
2023/08/04 08:19:51;;;;;;;2.97;1.35;;;25.00;63.90;;;;;;5100508;28;20024;-52
2023/08/04 08:22:17;;;;;;;2.22;1.45;;;25.90;62.70;;;;;;5088640;28;20082;-49
2023/08/04 08:24:42;;;;;;;4.70;1.40;;;26.40;61.40;;;;;;5101522;28;20234;-54
2023/08/04 08:27:08;;;;;;;2.90;1.33;;;26.30;60.00;;;;;;5088550;28;20044;-52
2023/08/04 08:29:35;;;;;;;3.70;1.70;;;26.00;60.10;;;;;;5102139;28;20055;-54
2023/08/04 08:32:01;;;;;;;4.00;1.40;;;25.60;60.00;;;;;;5085728;28;20016;-53
2023/08/04 08:34:26;;;;;;;4.68;1.50;;;25.40;60.20;;;;;;5095541;28;20024;-53
2023/08/04 08:36:52;;;;;;;3.78;1.77;;;25.30;60.60;;;;;;5085752;28;20051;-53
2023/08/04 08:39:17;;;;;;;2.38;1.23;;;25.50;60.70;;;;;;5088619;28;20028;-50
2023/08/04 08:41:43;;;;;;;3.90;1.30;;;26.10;60.80;;;;;;5107872;28;20434;-51
2023/08/04 08:44:09;;;;;;;3.47;1.17;;;26.90;61.00;;;;;;5086835;28;20063;-52
2023/08/04 08:46:35;;;;;;;3.22;1.45;;;27.70;59.30;;;;;;5107879;28;20020;-53
2023/08/04 08:49:02;;;;;;;3.55;1.60;;;28.30;57.70;;;;;;5086475;28;20046;-52
2023/08/04 08:51:29;;;;;;;3.15;1.25;;;28.60;54.80;;;;;;5107663;28;20073;-52
2023/08/04 08:53:57;;;;;;;1.88;1.30;;;28.60;52.60;;;;;;5086380;28;20061;-51
2023/08/04 08:56:25;;;;;;;2.05;1.20;;;28.70;52.60;;;;;;5086020;28;20032;-50
2023/08/04 08:58:50;;;;;;;2.88;1.40;;;28.90;51.30;;;;;;5110842;28;20111;-52
2023/08/04 09:01:16;;;;;;;3.42;1.20;;;29.10;50.50;;;;;;5090702;28;20616;-53
2023/08/04 09:03:42;;;;;;;3.97;1.40;;;29.20;49.40;;;;;;5111228;28;20024;-50
2023/08/04 09:06:07;;;;;;;2.83;1.30;;;29.10;47.50;;;;;;5090549;28;20107;-52
2023/08/04 09:08:32;;;;;;;2.90;1.42;;;28.70;45.90;;;;;;5111437;28;20027;-50
2023/08/04 09:10:58;;;;;;;3.03;1.20;;;28.20;45.40;;;;;;5090573;28;20035;-51
2023/08/04 09:13:26;;;;;;;8.70;1.63;;;27.70;45.40;;;;;;5111246;28;20036;-50
2023/08/04 09:15:53;;;;;;;1.50;1.20;;;27.40;45.50;;;;;;5090189;27;20055;-49
2023/08/04 09:18:31;;;;;;;3.17;1.10;;;27.40;46.90;;;;;;5111542;28;20035;-52
2023/08/04 09:21:15;;;;;;;2.55;1.38;;;27.50;46.40;;;;;;5085992;28;20020;-54
2023/08/04 09:23:42;;;;;;;2.45;1.02;;;27.70;45.00;;;;;;5071171;28;20020;-51
2023/08/04 09:26:07;;;;;;;2.90;1.13;;;27.80;47.90;;;;;;5090979;28;20050;-53
2023/08/04 09:28:33;;;;;;;2.08;1.40;;;27.70;45.70;;;;;;5111093;28;20399;-54
2023/08/04 09:31:03;;;;;;;2.50;1.20;;;27.70;45.10;;;;;;5089852;28;20456;-54
2023/08/04 09:33:28;;;;;;;3.40;1.30;;;27.80;43.00;;;;;;5105313;28;20031;-54
2023/08/04 09:36:11;;;;;;;1.55;0.95;;;27.80;43.80;;;;;;5089513;28;20028;-54
2023/08/04 09:38:38;;;;;;;2.05;1.08;;;27.80;38.30;;;;;;5081047;28;20024;-55
2023/08/04 09:41:11;;;;;;;2.63;1.20;;;28.10;42.60;;;;;;5106396;28;20031;-51
2023/08/04 09:43:48;;;;;;;2.08;1.27;;;28.30;39.50;;;;;;5086508;28;20427;-57
2023/08/04 09:46:19;;;;;;;2.72;1.10;;;28.40;37.30;;;;;;5091219;28;20032;-57
2023/08/04 09:48:45;;;;;;;3.35;1.13;;;28.50;39.40;;;;;;5070751;28;20090;-57
2023/08/04 09:51:13;;;;;;;1.45;1.10;;;28.70;38.80;;;;;;5091017;28;20658;-57
2023/08/04 09:53:45;;;;;;;1.95;1.10;;;28.90;38.70;;;;;;5107890;28;20114;-56
2023/08/04 09:56:12;;;;;;;2.90;0.90;;;29.00;37.80;;;;;;5091039;28;20576;-57
2023/08/04 09:58:39;;;;;;;2.33;1.10;;;29.10;37.60;;;;;;5107848;28;20051;-56
2023/08/04 10:01:05;;;;;;;1.88;0.88;;;29.10;37.00;;;;;;5090873;28;20038;-57
2023/08/04 10:03:32;;;;;;;2.25;1.00;;;29.20;36.50;;;;;;5108613;28;20024;-55
2023/08/04 10:06:03;;;;;;;1.40;1.05;;;29.30;35.60;;;;;;5090733;28;20103;-56
2023/08/04 10:08:33;;;;;;;4.13;1.60;;;29.30;34.90;;;;;;5070539;28;20025;-56
2023/08/04 10:10:59;;;;;;;2.88;1.80;;;29.10;33.50;;;;;;5069805;28;20028;-57
2023/08/04 10:13:26;;;;;;;2.30;1.13;;;29.00;33.90;;;;;;5109575;28;20525;-57
2023/08/04 10:15:55;;;;;;;2.22;1.15;;;28.70;33.60;;;;;;5088983;28;20660;-56
2023/08/04 10:18:22;;;;;;;1.38;1.23;;;28.40;33.70;;;;;;5110335;28;20054;-55
2023/08/04 10:20:49;;;;;;;2.78;1.20;;;28.20;33.50;;;;;;5088926;28;20046;-56
2023/08/04 10:23:15;;;;;;;3.10;1.38;;;27.90;33.30;;;;;;5110215;28;20060;-56
2023/08/04 10:25:55;;;;;;;1.17;0.90;;;27.50;33.50;;;;;;5088971;28;20056;-56
2023/08/04 10:28:21;;;;;;;2.65;1.40;;;27.20;33.10;;;;;;5069867;28;20493;-56
2023/08/04 10:30:47;;;;;;;3.95;1.05;;;26.70;33.70;;;;;;5088414;28;20066;-56
2023/08/04 10:33:12;;;;;;;3.33;1.30;;;26.60;34.40;;;;;;5109511;28;20403;-56
2023/08/04 10:36:08;;;;;;;3.67;1.50;;;26.40;34.10;;;;;;5082412;28;20035;-55
2023/08/04 10:38:49;;;;;;;2.10;1.30;;;26.30;35.60;;;;;;5050744;28;20056;-56
2023/08/04 10:41:15;;;;;;;2.45;1.25;;;26.20;36.00;;;;;;5090135;28;20103;-56
2023/08/04 10:43:40;;;;;;;3.10;1.17;;;26.20;35.20;;;;;;5106144;28;20123;-55
2023/08/04 10:46:10;;;;;;;1.77;1.25;;;26.20;35.20;;;;;;5089923;28;20454;-56
2023/08/04 10:48:40;;;;;;;2.30;1.00;;;26.20;35.70;;;;;;5106921;28;20058;-55
2023/08/04 10:51:10;;;;;;;3.03;1.20;;;26.10;35.40;;;;;;5088410;28;20016;-54
2023/08/04 10:53:36;;;;;;;2.08;1.33;;;26.00;35.70;;;;;;5107618;28;20031;-56
2023/08/04 10:56:06;;;;;;;1.77;1.27;;;26.00;35.40;;;;;;5109906;28;20020;-56
2023/08/04 10:58:31;;;;;;;3.15;1.15;;;26.10;35.50;;;;;;5067918;28;20024;-56
2023/08/04 11:00:57;;;;;;;4.13;1.00;;;26.20;35.00;;;;;;5089857;28;20031;-56
2023/08/04 11:03:26;;;;;;;2.97;1.33;;;26.40;35.20;;;;;;5107775;28;20035;-56
2023/08/04 11:05:53;;;;;;;1.55;1.13;;;26.50;35.40;;;;;;5087695;28;20031;-56
2023/08/04 11:08:19;;;;;;;2.05;1.20;;;26.50;35.50;;;;;;5109221;28;20045;-58
2023/08/04 11:10:50;;;;;;;2.35;1.10;;;26.40;35.40;;;;;;5088096;28;20032;-56
2023/08/04 11:13:17;;;;;;;1.92;1.40;;;26.30;35.50;;;;;;5109462;28;20020;-56
2023/08/04 11:15:43;;;;;;;1.67;1.40;;;26.30;35.80;;;;;;5087783;28;20028;-54
2023/08/04 11:18:16;;;;;;;3.70;1.40;;;26.30;35.90;;;;;;5109102;28;20430;-55
2023/08/04 11:20:42;;;;;;;2.72;1.52;;;26.30;36.60;;;;;;5086846;28;20056;-56
2023/08/04 11:23:10;;;;;;;2.45;1.20;;;26.20;36.60;;;;;;5108746;28;20043;-55
2023/08/04 11:25:36;;;;;;;3.08;1.00;;;26.20;36.90;;;;;;5087883;28;20391;-56
2023/08/04 11:28:03;;;;;;;2.67;1.45;;;26.20;37.20;;;;;;5108694;28;20487;-56
2023/08/04 11:30:28;;;;;;;3.95;1.23;;;26.20;37.20;;;;;;5096626;28;20522;-56
2023/08/04 11:32:54;;;;;;;1.55;1.13;;;26.20;37.50;;;;;;5089632;28;20039;-56
2023/08/04 11:35:20;;;;;;;4.90;1.50;;;26.20;37.40;;;;;;5086097;28;20063;-54
2023/08/04 11:37:45;;;;;;;2.58;1.25;;;26.20;37.40;;;;;;5108752;28;20028;-53
2023/08/04 11:40:21;;;;;;;3.17;1.70;;;26.20;37.20;;;;;;5087808;28;20028;-56
2023/08/04 11:42:47;;;;;;;2.97;1.48;;;26.40;36.90;;;;;;5108926;28;20096;-56
2023/08/04 11:45:13;;;;;;;1.50;1.20;;;26.60;37.20;;;;;;5087657;28;20430;-56
2023/08/04 11:47:39;;;;;;;4.57;1.45;;;26.60;37.10;;;;;;5108349;28;20093;-55
2023/08/04 11:50:06;;;;;;;3.33;1.55;;;26.60;37.10;;;;;;5087561;28;20036;-58
2023/08/04 11:52:37;;;;;;;2.03;1.10;;;26.40;36.90;;;;;;5108759;28;20030;-57
2023/08/04 11:55:04;;;;;;;3.53;1.40;;;26.30;36.20;;;;;;5079600;28;20024;-57
2023/08/04 11:57:29;;;;;;;2.17;1.30;;;26.20;37.00;;;;;;5108793;28;20035;-57
2023/08/04 11:59:55;;;;;;;1.50;1.05;;;26.10;36.50;;;;;;5086249;28;20116;-56
2023/08/04 12:02:21;;;;;;;3.75;1.30;;;26.00;36.10;;;;;;5108388;28;20040;-57
2023/08/04 12:05:07;;;;;;;2.15;1.25;;;25.90;36.50;;;;;;5087268;28;20031;-55
2023/08/04 12:07:33;;;;;;;1.92;1.50;;;25.80;37.20;;;;;;5068731;28;20033;-57
2023/08/04 12:09:58;;;;;;;3.30;1.33;;;25.70;36.90;;;;;;5093781;28;20032;-57
2023/08/04 12:12:37;;;;;;;4.25;1.33;;;25.60;36.80;;;;;;5108374;28;20119;-56
2023/08/04 12:15:04;;;;;;;3.00;1.27;;;25.60;37.10;;;;;;5086691;28;20050;-57
2023/08/04 12:17:40;;;;;;;2.55;1.30;;;25.50;36.80;;;;;;5108494;28;20027;-59
2023/08/04 12:20:08;;;;;;;1.27;1.00;;;25.50;36.50;;;;;;5080002;28;20111;-58
2023/08/04 12:22:38;;;;;;;3.88;1.50;;;25.50;36.20;;;;;;5108837;28;20032;-57
2023/08/04 12:25:05;;;;;;;2.72;1.25;;;25.50;36.00;;;;;;5079503;28;20172;-58
2023/08/04 12:27:31;;;;;;;1.85;1.10;;;25.60;35.70;;;;;;5108449;28;20039;-57
2023/08/04 12:29:56;;;;;;;3.50;1.00;;;25.70;35.50;;;;;;5091671;28;20043;-56
2023/08/04 12:32:22;;;;;;;3.53;1.10;;;25.80;35.40;;;;;;5109410;28;20023;-54
2023/08/04 12:34:47;;;;;;;1.40;0.95;;;25.80;35.30;;;;;;5085693;28;20030;-56
2023/08/04 12:37:13;;;;;;;2.03;1.20;;;25.80;34.90;;;;;;5112354;28;20035;-56
2023/08/04 12:39:38;;;;;;;2.70;1.10;;;25.80;35.00;;;;;;5091141;28;20085;-56
2023/08/04 12:42:04;;;;;;;2.63;1.00;;;25.70;34.90;;;;;;5111915;28;20499;-57
2023/08/04 12:44:30;;;;;;;2.60;1.08;;;25.80;35.80;;;;;;5091121;28;20024;-57